Beaver, Arkansas
Current Conditions -  °F | °C
As of 1:57 PM on Wednesday 17 Dec 2014 (Local Time) from KROG Reporting Station
Light Rain Light Rain  
Wind Chill: 34°   Ceiling: 5500
Heat Index: 34°   Visibility: 7mi
Dew Point: 29°   Wind: 0mph
Humidity: 82%   Direction: NA
Pressure: 30.23"   Gusts: NA
Location:  36.47°N, 93.77°W
Report Text: KROG 171957Z 00000KT 7SM -RA BKN055 OVC070 01/M02 A3023 RMK AO2 UPB02E06 SLP248 P0003 T00111017
Loading
Personal Weather Stations






























Interactive Weather Map New forecast layout! Learn more

10-Day Weather Forecast

Advertisements
Track Severe Weather on mobile